Startline

Arbutus Fun Run 5K

Vancouver, BC - 1 juillet 2019

ÉpreuveRangTemps officiel DossardNomDivision Rang/sexeRang/division Puce
5K 1/130 0:19:08 222 CHAPMAN, Tomas M1519 1/63 1/7 0:19:01
5K 2/130 0:21:22 268 MASON, Peter M1519 2/63 2/7 0:21:21
5K 3/130 0:22:27 286 NG, Kwok Ping M6069 3/63 1/5 0:22:24
5K 4/130 0:22:41 333 ANDERSON, Keith M4049 4/63 1/10 0:22:37
5K 5/130 0:23:11 242 KIM, Hugh M4049 5/63 2/10 0:23:04
5K 6/130 0:24:01 265 LUI, Teson M1014 6/63 1/22 0:23:56
5K 7/130 0:24:07 334 ANDERSON, Brendan M1014 7/63 2/22 0:24:04
5K 8/130 0:24:18 224 DO, Tam M4049 8/63 3/10 0:24:15
5K 9/130 0:24:21 256 LEE, Dennis M4049 9/63 4/10 0:24:08
5K 10/130 0:24:21 337 YAP, Christopher M1519 10/63 3/7 0:24:02
5K 11/130 0:24:35 267 LUI, Tomson M1014 11/63 3/22 0:24:30
5K 12/130 0:24:44 295 SCHINDEL, Scott M4049 12/63 5/10 0:24:39
5K 13/130 0:25:12 279 MIU, Winston M2029 13/63 1/2 0:25:09
5K 14/130 0:25:30 283 MORGAN, Tony M4049 14/63 6/10 0:25:19
5K 15/130 0:25:39 323 SCHINDEL, Jonathan M1014 15/63 4/22 0:25:35
5K 16/130 0:25:46 228 GEROS, Peta-Gay F4049 1/64 1/10 0:25:41
5K 17/130 0:25:55 209 BAXENDALE, Scott M5-9 16/63 1/3 0:25:46
5K 18/130 0:25:55 325 MALLINDER, William M1014 17/63 5/22 0:25:51
5K 19/130 0:25:55 339 YAP, David M1014 18/63 6/22 0:25:42
5K 20/130 0:25:55 338 YAP, Catherine F1014 2/64 1/12 0:25:38
5K 21/130 0:26:12 249 KUSUMOTO, Markus M1014 19/63 7/22 0:26:08
5K 22/130 0:26:20 205 BAUR, Paul M3039 20/63 1/4 0:26:09
5K 23/130 0:26:27 324 ROSS, Alan M5059 21/63 1/8 0:26:13
5K 24/130 0:26:36 297 SUNG, Jessica F1519 3/64 1/3 0:26:25
5K 25/130 0:26:40 301 WALWYN, Keith F1014 4/64 2/12 0:26:29
5K 26/130 0:26:48 306 YONG, Johnathan F1014 5/64 3/12 0:26:31
5K 27/130 0:27:19 311 YOUNG, Dexter M2029 22/63 2/2 0:27:05
5K 28/130 0:27:20 258 LEHMAN, Sara F1014 6/64 4/12 0:27:18
5K 29/130 0:27:23 257 LEE, John M6069 23/63 2/5 0:27:01
5K 30/130 0:27:23 246 KRUCIK, Sophia F5-9 7/64 1/6 0:27:21
5K 31/130 0:27:24 259 LIU, Mason Binrui M-U5 24/63 1/1 0:27:01
5K 32/130 0:27:44 308 YONG, Theresa F3039 8/64 1/4 0:27:25
5K 33/130 0:27:55 225 DUFF, Kathryn F5059 9/64 1/13 0:27:44
5K 34/130 0:28:08 232 HARRISON, Michelle F5059 10/64 2/13 0:27:53
5K 35/130 0:28:10 262 LOUIE, Kate F1014 11/64 5/12 0:28:08
5K 36/130 0:28:13 291 RUTHERFORD, Devon M4049 25/63 7/10 0:28:04
5K 37/130 0:28:14 220 CHAN, Jennifer F4049 12/64 2/10 0:28:08
5K 38/130 0:28:16 248 KUSUMOTO, Kayden M1014 26/63 8/22 0:28:13
5K 39/130 0:28:31 260 LIU, Ruozhou M3039 27/63 2/4 0:28:08
5K 40/130 0:28:42 221 CHAPMAN, Natalee F1014 13/64 6/12 0:28:38
5K 41/130 0:28:45 236 HOPKINS, Catherine F5059 14/64 3/13 0:28:35
5K 42/130 0:28:48 349 BRUMWELL, Jill F4049 15/64 3/10 0:28:39
5K 43/130 0:28:48 266 LUI, Tom M4049 28/63 8/10 0:28:38
5K 44/130 0:28:51 285 NG, Jonathan M3039 29/63 3/4 0:28:28
5K 45/130 0:28:53 227 GERBER, Ellen F6069 16/64 1/5 0:28:47
5K 46/130 0:28:57 254 LEE, Alison F3039 17/64 2/4 0:28:35
5K 47/130 0:28:58 340 MATSUYAMA, Sandra F5059 18/64 4/13 0:28:44
5K 48/130 0:29:03 284 MOSS, Tegan F3039 19/64 3/4 0:28:55
5K 49/130 0:29:08 296 SUNG, Gloria F4049 20/64 4/10 0:28:58
5K 50/130 0:29:47 230 GRIFFITH, Jaxon F5-9 21/64 2/6 0:29:32
5K 51/130 0:29:48 315 MAH, John M6069 30/63 3/5 0:29:43
5K 52/130 0:30:11 346 YEGANEGI, Jim M9999 31/63 1/1 0:29:55
5K 53/130 0:30:18 278 MIU, Oliver M1519 32/63 4/7 0:30:12
5K 54/130 0:30:19 273 MCJUNKIN, Camille F2029 22/64 1/5 0:30:03
5K 55/130 0:30:28 347 SMYTH, Maya F1014 23/64 7/12 0:30:23
5K 56/130 0:30:41 202 BAILEY, Andrea F6069 24/64 2/5 0:30:34
5K 57/130 0:30:52 320 HANNAY, Fraser M1519 33/63 5/7 0:30:42
5K 58/130 0:31:04 280 MOIR, Stuart M5059 34/63 2/8 0:30:55
5K 59/130 0:31:08 206 BAXENDALE, Gary M5059 35/63 3/8 0:30:51
5K 60/130 0:31:11 307 YONG, Juliana F1014 25/64 8/12 0:30:54
5K 61/130 0:31:15 322 SCHINDEL, Jamie M1014 36/63 9/22 0:31:10
5K 62/130 0:32:07 313 YOUNG, Leela F1519 26/64 2/3 0:31:52
5K 63/130 0:32:12 231 GUAN, Marisa F5059 27/64 5/13 0:32:02
5K 64/130 0:32:19 204 BAILEY, Melissa F2029 28/64 2/5 0:32:10
5K 65/130 0:32:38 240 KARIM, Rong Rong F5059 29/64 6/13 0:32:30
5K 66/130 0:32:43 207 BAXENDALE, Mara F1014 30/64 9/12 0:32:27
5K 67/130 0:32:58 255 LEE, Cameron M1014 37/63 10/22 0:32:56
5K 68/130 0:33:18 272 MAXWELL-SMITH, Leigh F2029 31/64 3/5 0:33:10
5K 69/130 0:33:20 271 MAXWELL-SMITH, Eliner F5059 32/64 7/13 0:33:13
5K 70/130 0:33:37 263 LOUIE, Owen M1014 38/63 11/22 0:33:32
5K 71/130 0:33:43 348 DO, Matthew M1014 39/63 12/22 0:33:40
5K 72/130 0:34:00 327 LOHIA, Ayush M1014 40/63 13/22 0:33:58
5K 73/130 0:34:13 328 LOHIA, Aarav M1014 41/63 14/22 0:34:11
5K 74/130 0:34:17 243 KIM, Yong-Jae M4049 42/63 9/10 0:34:07
5K 75/130 0:34:17 326 LOHIA, Gautam M5059 43/63 4/8 0:34:14
5K 76/130 0:34:29 282 MORGAN, Rhys M5-9 44/63 2/3 0:34:26
5K 77/130 0:34:35 314 YOUNG, Rosalin F5059 33/64 8/13 0:34:21
5K 78/130 0:34:37 312 YOUNG, John M5059 45/63 5/8 0:34:23
5K 79/130 0:35:17 309 YONG, Zachary F5-9 34/64 3/6 0:35:00
5K 80/130 0:35:21 305 YONG, Isabella F1014 35/64 10/12 0:35:04
5K 81/130 0:35:53 217 BUTLER, Andrea F5059 36/64 9/13 0:35:50
5K 82/130 0:35:58 241 KARIM, Shahzad M5059 46/63 6/8 0:35:38
5K 83/130 0:36:14 261 LOUIE, Gabrielle F4049 37/64 5/10 0:36:09
5K 84/130 0:37:14 294 RUTHERFORD-BRAUN, Henry M1014 47/63 15/22 0:37:03
5K 85/130 0:37:58 208 BAXENDALE, Riley M1014 48/63 16/22 0:37:44
5K 86/130 0:38:09 264 LOUIE, Zoie F5-9 38/64 4/6 0:38:06
5K 87/130 0:38:12 219 CHAN, Herbert M4049 49/63 10/10 0:38:05
5K 88/130 0:38:12 218 CHAN, Alexander M5-9 50/63 3/3 0:38:05
5K 89/130 0:38:13 269 MATHESON, Grace F1014 39/64 11/12 0:38:06
5K 90/130 0:38:14 300 WALWYN, Jane F1014 40/64 12/12 0:38:06
5K 91/130 0:38:29 270 MATHESON, Kyle 1/2   0:38:20
5K 92/130 0:38:33 247 KUSUMOTO, Jenny F4049 41/64 6/10 0:38:29
5K 93/130 0:38:34 250 KUSUMOTO, Meika F5-9 42/64 5/6 0:38:30
5K 94/130 0:38:59 299 THOBANI, Shafik M6069 51/63 4/5 0:38:53
5K 95/130 0:39:08 288 PEACOCK, Graham M3039 52/63 4/4 0:38:46
5K 96/130 0:39:20 235 HO, Alice F6069 43/64 3/5 0:39:01
5K 97/130 0:42:12 251 LAM, Ada F4049 44/64 7/10 0:41:55
5K 98/130 0:42:12 335 YAP, Melvin M5059 53/63 7/8 0:41:54
5K 99/130 0:42:41 276 MINNS, Jocelyn F2029 45/64 4/5 0:42:34
5K 100/130 0:43:41 293 RUTHERFORD-BRAUN, Benjamin M1014 54/63 17/22 0:43:37
5K 101/130 0:43:54 292 RUTHERFORD-BRAUN, Andrew M1014 55/63 18/22 0:43:44
5K 102/130 0:44:12 211 BRAUN, Shelley F4049 46/64 8/10 0:44:01
5K 103/130 0:45:32 298 THOBANI, Gulshan F6069 47/64 4/5 0:45:26
5K 104/130 0:46:08 244 KIM-SING, Angela F5059 48/64 10/13 0:45:56
5K 105/130 0:46:09 310 YOSHIDA, Eric M 2/2   0:45:55
5K 106/130 0:46:10 274 ROSS, Sandra F70+ 49/64 1/6 0:45:48
5K 107/130 0:46:14 229 GRIFFITH, Jada F5-9 50/64 6/6 0:45:57
5K 108/130 0:46:29 350 REG, Late     0:46:20
5K 109/130 0:46:30 336 YAP, Jenny F5059 51/64 11/13 0:46:18
5K 110/130 0:47:10 318 HANNAY, Sherri F70+ 52/64 2/6 0:46:44
5K 111/130 0:47:12 319 HANNAY, Jenn F4049 53/64 9/10 0:46:45
5K 112/130 0:47:20 234 HIGH, Ian M1014 56/63 19/22 0:47:07
5K 113/130 0:47:22 303 YEN, Ethan M1014 57/63 20/22 0:47:10
5K 114/130 0:47:25 233 HIGH, Evan M1519 58/63 6/7 0:47:14
5K 115/130 0:47:26 304 YEN, Sean M1014 59/63 21/22 0:47:13
5K 116/130 0:47:46 317 HOWE, Stephanie F2029 54/64 5/5 0:47:39
5K 117/130 0:47:46 316 HOWE, Gabrielle F5059 55/64 12/13 0:47:39
5K 118/130 0:49:30 277 MINNS, Richard M6069 60/63 5/5 0:49:24
5K 119/130 0:50:05 281 MORGAN, Margaret F70+ 56/64 3/6 0:49:49
5K 120/130 0:50:12 215 BUNTAIN, Lois F70+ 57/64 4/6 0:49:52
5K 121/130 0:51:39 245 KRUCIK, Karen F4049 58/64 10/10 0:51:28
5K 122/130 0:52:10 275 MINNS, Charlene F3039 59/64 4/4 0:52:02
5K 123/130 0:53:19 216 BUNTAIN, Lynn F6069 60/64 5/5 0:53:01
5K 124/130 0:53:19 238 KARIM, Noaah M1014 61/63 22/22 0:53:00
5K 125/130 0:53:19 239 KARIM, Qaasim M1519 62/63 7/7 0:53:00
5K 126/130 0:53:22 210 BOYLE, Marion F70+ 61/64 5/6 0:53:05
5K 127/130 0:53:22 290 RIDLEY, Betty F70+ 62/64 6/6 0:53:06
5K 128/130 0:57:30 341 MATSUYAMA, Bob M5059 63/63 8/8 0:57:18
5K 129/130 0:57:32 344 ROOKY, Driver F5059 63/64 13/13 0:57:19
5K 130/130 1:02:36 342 MATSUYAMA, Andrea F1519 64/64 3/3 1:02:26